sensor_id;sensor_type;location;lat;lon;timestamp;pressure;altitude;pressure_sealevel;temperature;humidity
30073;BME280;16897;52.422;13.678;2022-12-07T00:00:01;100925.16;;;6.56;65.82
30073;BME280;16897;52.422;13.678;2022-12-07T00:04:04;100920.28;;;6.47;66.03
30073;BME280;16897;52.422;13.678;2022-12-07T00:08:06;100915.47;;;6.36;65.81
30073;BME280;16897;52.422;13.678;2022-12-07T00:12:08;100870.66;;;6.08;65.96
30073;BME280;16897;52.422;13.678;2022-12-07T00:16:17;100899.38;;;6.27;65.80
30073;BME280;16897;52.422;13.678;2022-12-07T00:20:19;100904.63;;;6.25;66.02
30073;BME280;16897;52.422;13.678;2022-12-07T00:24:22;100908.84;;;6.28;65.94
30073;BME280;16897;52.422;13.678;2022-12-07T00:28:23;100903.88;;;6.22;65.77
30073;BME280;16897;52.422;13.678;2022-12-07T00:32:26;100920.28;;;6.22;65.89
30073;BME280;16897;52.422;13.678;2022-12-07T00:36:28;100890.69;;;6.03;65.68
30073;BME280;16897;52.422;13.678;2022-12-07T00:40:30;100896.75;;;6.02;65.98
30073;BME280;16897;52.422;13.678;2022-12-07T00:44:31;100907.03;;;6.05;65.93
30073;BME280;16897;52.422;13.678;2022-12-07T00:48:33;100901.94;;;6.02;65.78
30073;BME280;16897;52.422;13.678;2022-12-07T00:52:35;100901.22;;;5.98;65.90
30073;BME280;16897;52.422;13.678;2022-12-07T00:56:37;100883.50;;;5.84;65.94
30073;BME280;16897;52.422;13.678;2022-12-07T01:00:41;100879.97;;;5.87;65.72
30073;BME280;16897;52.422;13.678;2022-12-07T01:04:43;100884.06;;;5.94;65.93
30073;BME280;16897;52.422;13.678;2022-12-07T01:08:45;100888.25;;;5.98;65.90
30073;BME280;16897;52.422;13.678;2022-12-07T01:12:46;100890.84;;;5.98;65.86
30073;BME280;16897;52.422;13.678;2022-12-07T01:16:48;100856.09;;;5.77;65.71
30073;BME280;16897;52.422;13.678;2022-12-07T01:21:02;100874.81;;;5.85;65.57
30073;BME280;16897;52.422;13.678;2022-12-07T01:25:06;100855.44;;;5.70;65.79
30073;BME280;16897;52.422;13.678;2022-12-07T01:29:08;100878.41;;;5.81;65.56
30073;BME280;16897;52.422;13.678;2022-12-07T01:33:10;100863.97;;;5.74;65.69
30073;BME280;16897;52.422;13.678;2022-12-07T01:37:12;100867.41;;;5.74;65.75
30073;BME280;16897;52.422;13.678;2022-12-07T01:41:15;100860.63;;;5.70;65.73
30073;BME280;16897;52.422;13.678;2022-12-07T01:45:38;100864.09;;;5.69;65.47
30073;BME280;16897;52.422;13.678;2022-12-07T01:49:45;100860.75;;;5.67;65.45
30073;BME280;16897;52.422;13.678;2022-12-07T01:53:49;100853.84;;;5.66;65.49
30073;BME280;16897;52.422;13.678;2022-12-07T01:57:53;100847.94;;;5.63;65.66
30073;BME280;16897;52.422;13.678;2022-12-07T02:01:56;100845.22;;;5.66;65.77
30073;BME280;16897;52.422;13.678;2022-12-07T02:05:59;100838.31;;;5.66;65.75
30073;BME280;16897;52.422;13.678;2022-12-07T02:10:22;100833.34;;;5.60;65.65
30073;BME280;16897;52.422;13.678;2022-12-07T02:14:24;100811.22;;;5.50;65.67
30073;BME280;16897;52.422;13.678;2022-12-07T02:27:38;100847.69;;;5.70;65.44
30073;BME280;16897;52.422;13.678;2022-12-07T02:32:43;100829.84;;;5.61;65.68
30073;BME280;16897;52.422;13.678;2022-12-07T02:36:55;100824.75;;;5.58;65.61
30073;BME280;16897;52.422;13.678;2022-12-07T02:41:05;100815.22;;;5.59;65.39
30073;BME280;16897;52.422;13.678;2022-12-07T02:45:10;100830.50;;;5.68;65.63
30073;BME280;16897;52.422;13.678;2022-12-07T02:49:14;100821.19;;;5.62;65.67
30073;BME280;16897;52.422;13.678;2022-12-07T02:53:37;100812.56;;;5.62;65.59
30073;BME280;16897;52.422;13.678;2022-12-07T03:02:54;100805.06;;;5.54;65.38
30073;BME280;16897;52.422;13.678;2022-12-07T03:07:34;100809.22;;;5.58;65.35
30073;BME280;16897;52.422;13.678;2022-12-07T03:11:50;100776.00;;;5.44;65.34
30073;BME280;16897;52.422;13.678;2022-12-07T03:16:35;100792.09;;;5.54;65.34
30073;BME280;16897;52.422;13.678;2022-12-07T03:20:44;100790.38;;;5.53;65.55
30073;BME280;16897;52.422;13.678;2022-12-07T03:24:57;100765.09;;;5.35;65.22
30073;BME280;16897;52.422;13.678;2022-12-07T03:29:09;100758.34;;;5.30;65.48
30073;BME280;16897;52.422;13.678;2022-12-07T03:33:32;100765.00;;;5.38;65.24
30073;BME280;16897;52.422;13.678;2022-12-07T03:37:57;100770.94;;;5.41;65.42
30073;BME280;16897;52.422;13.678;2022-12-07T03:42:01;100735.94;;;5.29;65.22
30073;BME280;16897;52.422;13.678;2022-12-07T03:51:33;100732.75;;;5.21;65.39
30073;BME280;16897;52.422;13.678;2022-12-07T03:55:32;100719.22;;;5.13;65.21
30073;BME280;16897;52.422;13.678;2022-12-07T03:59:36;100701.28;;;5.07;65.25
30073;BME280;16897;52.422;13.678;2022-12-07T04:03:40;100686.78;;;5.03;65.39
30073;BME280;16897;52.422;13.678;2022-12-07T04:07:45;100686.88;;;5.00;65.47
30073;BME280;16897;52.422;13.678;2022-12-07T04:11:47;100658.78;;;4.89;65.34
30073;BME280;16897;52.422;13.678;2022-12-07T04:15:49;100694.47;;;5.04;65.27
30073;BME280;16897;52.422;13.678;2022-12-07T04:19:51;100649.72;;;4.76;65.37
30073;BME280;16897;52.422;13.678;2022-12-07T04:23:52;100688.59;;;4.99;65.15
30073;BME280;16897;52.422;13.678;2022-12-07T04:27:54;100669.00;;;4.92;65.42
30073;BME280;16897;52.422;13.678;2022-12-07T04:31:56;100670.00;;;4.88;65.30
30073;BME280;16897;52.422;13.678;2022-12-07T04:35:58;100687.03;;;4.95;65.42
30073;BME280;16897;52.422;13.678;2022-12-07T04:40:00;100663.94;;;4.89;65.39
30073;BME280;16897;52.422;13.678;2022-12-07T04:44:04;100670.66;;;4.95;65.29
30073;BME280;16897;52.422;13.678;2022-12-07T04:48:08;100562.41;;;4.29;65.37
30073;BME280;16897;52.422;13.678;2022-12-07T04:52:10;100653.78;;;4.83;65.37
30073;BME280;16897;52.422;13.678;2022-12-07T04:56:13;100640.25;;;4.75;65.32
30073;BME280;16897;52.422;13.678;2022-12-07T05:00:15;100639.25;;;4.79;65.32
30073;BME280;16897;52.422;13.678;2022-12-07T05:04:17;100638.41;;;4.78;65.37
30073;BME280;16897;52.422;13.678;2022-12-07T05:08:19;100647.72;;;4.84;65.26
30073;BME280;16897;52.422;13.678;2022-12-07T05:12:21;100625.66;;;4.72;65.46
30073;BME280;16897;52.422;13.678;2022-12-07T05:16:23;100626.53;;;4.73;65.36
30073;BME280;16897;52.422;13.678;2022-12-07T05:20:25;100635.75;;;4.80;65.48
30073;BME280;16897;52.422;13.678;2022-12-07T05:24:27;100631.63;;;4.74;65.59
30073;BME280;16897;52.422;13.678;2022-12-07T05:28:29;100635.84;;;4.78;65.35
30073;BME280;16897;52.422;13.678;2022-12-07T05:32:31;100614.72;;;4.64;65.24
30073;BME280;16897;52.422;13.678;2022-12-07T05:36:32;100620.50;;;4.72;65.38
30073;BME280;16897;52.422;13.678;2022-12-07T05:40:34;100620.50;;;4.72;65.51
30073;BME280;16897;52.422;13.678;2022-12-07T05:44:41;100569.69;;;4.44;65.58
30073;BME280;16897;52.422;13.678;2022-12-07T05:48:43;100612.56;;;4.78;65.59
30073;BME280;16897;52.422;13.678;2022-12-07T05:52:45;100598.97;;;4.72;65.64
30073;BME280;16897;52.422;13.678;2022-12-07T05:56:46;100606.69;;;4.73;65.43
30073;BME280;16897;52.422;13.678;2022-12-07T06:00:48;100603.09;;;4.77;65.43
30073;BME280;16897;52.422;13.678;2022-12-07T06:04:49;100606.38;;;4.82;65.73
30073;BME280;16897;52.422;13.678;2022-12-07T06:08:51;100585.09;;;4.74;65.60
30073;BME280;16897;52.422;13.678;2022-12-07T06:12:55;100603.78;;;4.82;65.51
30073;BME280;16897;52.422;13.678;2022-12-07T06:16:59;100595.91;;;4.85;65.71
30073;BME280;16897;52.422;13.678;2022-12-07T06:21:01;100589.78;;;4.88;65.52
30073;BME280;16897;52.422;13.678;2022-12-07T06:25:04;100560.84;;;4.77;65.68
30073;BME280;16897;52.422;13.678;2022-12-07T06:29:06;100530.03;;;4.71;65.56
30073;BME280;16897;52.422;13.678;2022-12-07T06:33:08;100557.91;;;4.87;65.55
30073;BME280;16897;52.422;13.678;2022-12-07T06:37:10;100557.78;;;4.91;65.55
30073;BME280;16897;52.422;13.678;2022-12-07T06:41:12;100559.41;;;4.95;65.70
30073;BME280;16897;52.422;13.678;2022-12-07T06:45:13;100538.88;;;4.88;65.72
30073;BME280;16897;52.422;13.678;2022-12-07T06:49:16;100570.31;;;5.03;65.79
30073;BME280;16897;52.422;13.678;2022-12-07T06:53:18;100559.16;;;5.01;65.51
30073;BME280;16897;52.422;13.678;2022-12-07T06:57:19;100553.09;;;5.02;65.61
30073;BME280;16897;52.422;13.678;2022-12-07T07:01:21;100561.75;;;5.01;65.59
30073;BME280;16897;52.422;13.678;2022-12-07T07:05:23;100549.81;;;4.97;65.64
30073;BME280;16897;52.422;13.678;2022-12-07T07:09:24;100522.53;;;4.88;65.66
30073;BME280;16897;52.422;13.678;2022-12-07T07:13:27;100548.59;;;5.07;65.67
30073;BME280;16897;52.422;13.678;2022-12-07T07:17:28;100555.25;;;5.14;65.86
30073;BME280;16897;52.422;13.678;2022-12-07T07:21:30;100555.16;;;5.17;65.90
30073;BME280;16897;52.422;13.678;2022-12-07T07:25:32;100534.78;;;5.08;65.73
30073;BME280;16897;52.422;13.678;2022-12-07T07:29:34;100565.28;;;5.23;65.67
30073;BME280;16897;52.422;13.678;2022-12-07T07:33:35;100545.75;;;5.15;65.90
30073;BME280;16897;52.422;13.678;2022-12-07T07:37:37;100541.38;;;5.17;65.90
30073;BME280;16897;52.422;13.678;2022-12-07T07:41:39;100548.78;;;5.26;65.75
30073;BME280;16897;52.422;13.678;2022-12-07T07:45:47;100549.53;;;5.29;65.78
30073;BME280;16897;52.422;13.678;2022-12-07T07:49:49;100542.72;;;5.27;65.93
30073;BME280;16897;52.422;13.678;2022-12-07T07:53:53;100527.25;;;5.25;65.97
30073;BME280;16897;52.422;13.678;2022-12-07T07:57:55;100555.06;;;5.44;65.99
30073;BME280;16897;52.422;13.678;2022-12-07T08:01:57;100537.94;;;5.40;65.83
30073;BME280;16897;52.422;13.678;2022-12-07T08:05:59;100530.16;;;5.40;65.86
30073;BME280;16897;52.422;13.678;2022-12-07T08:10:00;100541.06;;;5.48;65.76
30073;BME280;16897;52.422;13.678;2022-12-07T08:14:02;100553.81;;;5.54;66.07
30073;BME280;16897;52.422;13.678;2022-12-07T08:18:04;100499.56;;;5.27;66.02
30073;BME280;16897;52.422;13.678;2022-12-07T08:22:06;100543.47;;;5.54;65.90
30073;BME280;16897;52.422;13.678;2022-12-07T08:26:13;100535.63;;;5.55;66.10
30073;BME280;16897;52.422;13.678;2022-12-07T08:30:15;100556.72;;;5.68;65.90
30073;BME280;16897;52.422;13.678;2022-12-07T08:34:17;100540.59;;;5.62;66.11
30073;BME280;16897;52.422;13.678;2022-12-07T08:38:19;100557.56;;;5.69;65.95
30073;BME280;16897;52.422;13.678;2022-12-07T08:42:20;100560.78;;;5.75;66.15
30073;BME280;16897;52.422;13.678;2022-12-07T08:46:39;100550.59;;;5.71;66.11
30073;BME280;16897;52.422;13.678;2022-12-07T08:50:42;100548.66;;;5.76;66.05
30073;BME280;16897;52.422;13.678;2022-12-07T08:54:43;100550.47;;;5.74;66.05
30073;BME280;16897;52.422;13.678;2022-12-07T08:58:46;100573.41;;;5.83;66.09
30073;BME280;16897;52.422;13.678;2022-12-07T09:02:47;100580.16;;;5.89;66.01
30073;BME280;16897;52.422;13.678;2022-12-07T09:06:49;100556.47;;;5.74;66.07
30073;BME280;16897;52.422;13.678;2022-12-07T09:10:51;100555.34;;;5.82;65.97
30073;BME280;16897;52.422;13.678;2022-12-07T09:14:53;100573.25;;;5.88;66.11
30073;BME280;16897;52.422;13.678;2022-12-07T09:18:54;100550.41;;;5.75;66.09
30073;BME280;16897;52.422;13.678;2022-12-07T09:22:56;100581.81;;;5.90;66.21
30073;BME280;16897;52.422;13.678;2022-12-07T09:26:58;100575.19;;;5.83;66.09
30073;BME280;16897;52.422;13.678;2022-12-07T09:31:00;100589.75;;;5.85;65.94
30073;BME280;16897;52.422;13.678;2022-12-07T09:35:03;100590.38;;;5.92;65.91
30073;BME280;16897;52.422;13.678;2022-12-07T09:39:05;100577.00;;;5.81;66.03
30073;BME280;16897;52.422;13.678;2022-12-07T09:47:15;100600.97;;;5.86;65.82
30073;BME280;16897;52.422;13.678;2022-12-07T09:51:24;100590.00;;;5.79;66.02
30073;BME280;16897;52.422;13.678;2022-12-07T09:55:28;100601.31;;;5.76;65.97
30073;BME280;16897;52.422;13.678;2022-12-07T09:59:30;100623.34;;;5.88;65.95
30073;BME280;16897;52.422;13.678;2022-12-07T10:03:36;100606.16;;;5.86;65.84
30073;BME280;16897;52.422;13.678;2022-12-07T10:07:39;100603.91;;;5.76;65.90
30073;BME280;16897;52.422;13.678;2022-12-07T10:12:01;100632.75;;;5.91;65.64
30073;BME280;16897;52.422;13.678;2022-12-07T10:16:04;100617.09;;;5.94;65.87
30073;BME280;16897;52.422;13.678;2022-12-07T10:20:26;100627.56;;;5.91;65.71
30073;BME280;16897;52.422;13.678;2022-12-07T10:24:28;100601.22;;;5.80;65.74
30073;BME280;16897;52.422;13.678;2022-12-07T10:28:35;100604.75;;;5.77;65.56
30073;BME280;16897;52.422;13.678;2022-12-07T10:32:37;100619.09;;;5.86;65.68
30073;BME280;16897;52.422;13.678;2022-12-07T10:36:39;100625.88;;;5.90;65.83
30073;BME280;16897;52.422;13.678;2022-12-07T10:40:40;100607.03;;;5.86;65.69
30073;BME280;16897;52.422;13.678;2022-12-07T10:44:42;100624.88;;;5.94;65.71
30073;BME280;16897;52.422;13.678;2022-12-07T10:48:57;100630.06;;;5.94;65.67
30073;BME280;16897;52.422;13.678;2022-12-07T10:57:46;100590.59;;;5.86;65.63
30073;BME280;16897;52.422;13.678;2022-12-07T11:11:10;100598.22;;;5.90;65.52
30073;BME280;16897;52.422;13.678;2022-12-07T11:15:26;100598.78;;;5.98;65.58
30073;BME280;16897;52.422;13.678;2022-12-07T11:24:40;100584.28;;;5.94;65.48
30073;BME280;16897;52.422;13.678;2022-12-07T11:33:57;100590.22;;;5.96;65.63
30073;BME280;16897;52.422;13.678;2022-12-07T11:38:17;100574.16;;;5.87;65.55
30073;BME280;16897;52.422;13.678;2022-12-07T11:42:26;100567.88;;;5.94;65.42
30073;BME280;16897;52.422;13.678;2022-12-07T11:46:49;100582.81;;;6.09;65.57
30073;BME280;16897;52.422;13.678;2022-12-07T11:50:55;100532.97;;;5.81;65.59
30073;BME280;16897;52.422;13.678;2022-12-07T11:55:00;100580.06;;;6.14;65.63
30073;BME280;16897;52.422;13.678;2022-12-07T11:59:27;100601.19;;;6.27;65.62
30073;BME280;16897;52.422;13.678;2022-12-07T12:03:36;100581.56;;;6.19;65.54
30073;BME280;16897;52.422;13.678;2022-12-07T12:07:43;100578.84;;;6.23;65.55
30073;BME280;16897;52.422;13.678;2022-12-07T12:21:06;100573.28;;;6.32;65.28
30073;BME280;16897;52.422;13.678;2022-12-07T12:25:45;100559.63;;;6.28;65.17
30073;BME280;16897;52.422;13.678;2022-12-07T12:29:54;100579.75;;;6.43;65.50
30073;BME280;16897;52.422;13.678;2022-12-07T12:34:00;100566.13;;;6.38;65.46
30073;BME280;16897;52.422;13.678;2022-12-07T12:42:45;100569.19;;;6.48;65.42
30073;BME280;16897;52.422;13.678;2022-12-07T12:47:37;100530.25;;;6.28;65.38
30073;BME280;16897;52.422;13.678;2022-12-07T12:51:44;100563.94;;;6.50;65.25
30073;BME280;16897;52.422;13.678;2022-12-07T12:56:15;100564.72;;;6.52;65.22
30073;BME280;16897;52.422;13.678;2022-12-07T13:00:23;100566.25;;;6.56;65.38
30073;BME280;16897;52.422;13.678;2022-12-07T13:09:32;100563.88;;;6.51;65.05
30073;BME280;16897;52.422;13.678;2022-12-07T13:13:35;100558.44;;;6.57;65.40
30073;BME280;16897;52.422;13.678;2022-12-07T13:21:43;100559.94;;;6.63;65.21
30073;BME280;16897;52.422;13.678;2022-12-07T13:30:01;100556.94;;;6.72;65.30
30073;BME280;16897;52.422;13.678;2022-12-07T13:38:33;100551.56;;;6.77;65.06
30073;BME280;16897;52.422;13.678;2022-12-07T13:42:35;100531.13;;;6.69;65.13
30073;BME280;16897;52.422;13.678;2022-12-07T13:51:28;100537.09;;;6.71;65.02
30073;BME280;16897;52.422;13.678;2022-12-07T13:55:33;100536.97;;;6.74;65.08
30073;BME280;16897;52.422;13.678;2022-12-07T13:59:34;100544.56;;;6.79;64.97
30073;BME280;16897;52.422;13.678;2022-12-07T14:03:39;100541.25;;;6.75;65.25
30073;BME280;16897;52.422;13.678;2022-12-07T14:08:05;100564.28;;;6.83;65.00
30073;BME280;16897;52.422;13.678;2022-12-07T14:12:24;100563.31;;;6.85;65.16
30073;BME280;16897;52.422;13.678;2022-12-07T14:16:36;100555.59;;;6.84;64.89
30073;BME280;16897;52.422;13.678;2022-12-07T14:20:40;100518.56;;;6.60;65.03
30073;BME280;16897;52.422;13.678;2022-12-07T14:24:43;100541.97;;;6.79;65.07
30073;BME280;16897;52.422;13.678;2022-12-07T14:28:46;100484.75;;;6.41;64.94
30073;BME280;16897;52.422;13.678;2022-12-07T14:32:56;100535.34;;;6.72;65.12
30073;BME280;16897;52.422;13.678;2022-12-07T14:36:59;100540.91;;;6.83;65.16
30073;BME280;16897;52.422;13.678;2022-12-07T14:41:00;100518.28;;;6.66;64.95
30073;BME280;16897;52.422;13.678;2022-12-07T14:45:41;100545.03;;;6.89;65.09
30073;BME280;16897;52.422;13.678;2022-12-07T14:49:43;100548.47;;;6.89;64.87
30073;BME280;16897;52.422;13.678;2022-12-07T14:53:50;100500.22;;;6.64;64.90
30073;BME280;16897;52.422;13.678;2022-12-07T14:57:53;100527.09;;;6.82;64.90
30073;BME280;16897;52.422;13.678;2022-12-07T15:01:55;100525.28;;;6.84;65.03
30073;BME280;16897;52.422;13.678;2022-12-07T15:05:56;100506.66;;;6.75;64.90
30073;BME280;16897;52.422;13.678;2022-12-07T15:09:58;100522.69;;;6.84;64.93
30073;BME280;16897;52.422;13.678;2022-12-07T15:14:00;100522.00;;;6.81;64.77
30073;BME280;16897;52.422;13.678;2022-12-07T15:18:12;100513.22;;;6.63;64.94
30073;BME280;16897;52.422;13.678;2022-12-07T15:22:13;100505.44;;;6.63;64.91
30073;BME280;16897;52.422;13.678;2022-12-07T15:26:15;100529.59;;;6.65;64.79
30073;BME280;16897;52.422;13.678;2022-12-07T15:30:16;100532.88;;;6.69;65.01
30073;BME280;16897;52.422;13.678;2022-12-07T15:34:18;100533.66;;;6.71;64.71
30073;BME280;16897;52.422;13.678;2022-12-07T15:38:19;100530.47;;;6.64;64.88
30073;BME280;16897;52.422;13.678;2022-12-07T15:42:21;100524.66;;;6.59;64.91
30073;BME280;16897;52.422;13.678;2022-12-07T15:46:23;100521.47;;;6.52;64.69
30073;BME280;16897;52.422;13.678;2022-12-07T15:50:25;100533.31;;;6.58;64.87
30073;BME280;16897;52.422;13.678;2022-12-07T15:54:28;100532.88;;;6.48;64.79
30073;BME280;16897;52.422;13.678;2022-12-07T15:58:31;100529.41;;;6.48;64.59
30073;BME280;16897;52.422;13.678;2022-12-07T16:02:32;100531.19;;;6.47;64.64
30073;BME280;16897;52.422;13.678;2022-12-07T16:06:34;100532.97;;;6.45;64.60
30073;BME280;16897;52.422;13.678;2022-12-07T16:10:37;100539.94;;;6.45;64.59
30073;BME280;16897;52.422;13.678;2022-12-07T16:14:39;100539.34;;;6.38;64.62
30073;BME280;16897;52.422;13.678;2022-12-07T16:18:43;100539.53;;;6.33;64.65
30073;BME280;16897;52.422;13.678;2022-12-07T16:22:45;100523.50;;;6.24;64.81
30073;BME280;16897;52.422;13.678;2022-12-07T16:26:52;100525.06;;;6.28;64.85
30073;BME280;16897;52.422;13.678;2022-12-07T16:31:03;100514.94;;;6.22;64.63
30073;BME280;16897;52.422;13.678;2022-12-07T16:35:06;100526.06;;;6.24;64.62
30073;BME280;16897;52.422;13.678;2022-12-07T16:39:09;100527.84;;;6.23;64.97
30073;BME280;16897;52.422;13.678;2022-12-07T16:43:13;100523.63;;;6.20;64.55
30073;BME280;16897;52.422;13.678;2022-12-07T16:47:14;100533.16;;;6.20;64.91
30073;BME280;16897;52.422;13.678;2022-12-07T16:51:16;100538.16;;;6.25;64.55
30073;BME280;16897;52.422;13.678;2022-12-07T16:55:17;100552.13;;;6.20;64.62
30073;BME280;16897;52.422;13.678;2022-12-07T16:59:19;100545.41;;;6.16;64.78
30073;BME280;16897;52.422;13.678;2022-12-07T17:03:21;100552.38;;;6.14;64.75
30073;BME280;16897;52.422;13.678;2022-12-07T17:07:23;100537.13;;;6.07;64.60
30073;BME280;16897;52.422;13.678;2022-12-07T17:11:28;100533.03;;;6.01;64.58
30073;BME280;16897;52.422;13.678;2022-12-07T17:15:30;100530.97;;;6.09;64.69
30073;BME280;16897;52.422;13.678;2022-12-07T17:19:31;100539.06;;;6.02;64.55
30073;BME280;16897;52.422;13.678;2022-12-07T17:23:34;100542.56;;;6.01;64.60
30073;BME280;16897;52.422;13.678;2022-12-07T17:27:36;100533.38;;;5.92;64.75
30073;BME280;16897;52.422;13.678;2022-12-07T17:31:39;100547.03;;;5.97;64.55
30073;BME280;16897;52.422;13.678;2022-12-07T17:35:41;100556.44;;;6.00;64.66
30073;BME280;16897;52.422;13.678;2022-12-07T17:39:43;100551.31;;;5.98;64.68
30073;BME280;16897;52.422;13.678;2022-12-07T17:43:45;100567.78;;;5.97;64.62
30073;BME280;16897;52.422;13.678;2022-12-07T17:47:46;100539.69;;;5.85;64.65
30073;BME280;16897;52.422;13.678;2022-12-07T17:51:48;100572.16;;;5.95;64.60
30073;BME280;16897;52.422;13.678;2022-12-07T17:56:08;100539.16;;;5.76;64.48
30073;BME280;16897;52.422;13.678;2022-12-07T18:00:11;100565.56;;;5.86;64.47
30073;BME280;16897;52.422;13.678;2022-12-07T18:04:15;100544.50;;;5.72;64.61
30073;BME280;16897;52.422;13.678;2022-12-07T18:08:17;100561.50;;;5.79;64.56
30073;BME280;16897;52.422;13.678;2022-12-07T18:12:19;100570.91;;;5.82;64.56
30073;BME280;16897;52.422;13.678;2022-12-07T18:16:24;100554.00;;;5.71;64.46
30073;BME280;16897;52.422;13.678;2022-12-07T18:20:26;100568.56;;;5.75;64.53
30073;BME280;16897;52.422;13.678;2022-12-07T18:24:27;100565.16;;;5.73;64.42
30073;BME280;16897;52.422;13.678;2022-12-07T18:28:29;100562.91;;;5.64;64.66
30073;BME280;16897;52.422;13.678;2022-12-07T18:32:31;100581.78;;;5.68;64.50
30073;BME280;16897;52.422;13.678;2022-12-07T18:36:33;100565.63;;;5.61;64.44
30073;BME280;16897;52.422;13.678;2022-12-07T18:40:39;100577.69;;;5.62;64.56
30073;BME280;16897;52.422;13.678;2022-12-07T18:44:41;100529.19;;;5.42;64.36
30073;BME280;16897;52.422;13.678;2022-12-07T18:48:43;100563.03;;;5.61;64.38
30073;BME280;16897;52.422;13.678;2022-12-07T18:52:45;100550.44;;;5.52;64.54
30073;BME280;16897;52.422;13.678;2022-12-07T18:56:46;100556.34;;;5.55;64.53
30073;BME280;16897;52.422;13.678;2022-12-07T19:00:48;100553.25;;;5.46;64.50
30073;BME280;16897;52.422;13.678;2022-12-07T19:04:50;100577.97;;;5.54;64.50
30073;BME280;16897;52.422;13.678;2022-12-07T19:08:56;100494.59;;;4.98;64.40
30073;BME280;16897;52.422;13.678;2022-12-07T19:12:57;100583.31;;;5.50;64.42
30073;BME280;16897;52.422;13.678;2022-12-07T19:17:04;100576.69;;;5.43;64.40
30073;BME280;16897;52.422;13.678;2022-12-07T19:21:06;100573.28;;;5.41;64.22
30073;BME280;16897;52.422;13.678;2022-12-07T19:25:08;100559.91;;;5.29;64.18
30073;BME280;16897;52.422;13.678;2022-12-07T19:29:10;100575.19;;;5.36;64.17
30073;BME280;16897;52.422;13.678;2022-12-07T19:33:12;100571.19;;;5.27;64.28
30073;BME280;16897;52.422;13.678;2022-12-07T19:37:14;100578.84;;;5.30;64.27
30073;BME280;16897;52.422;13.678;2022-12-07T19:41:17;100573.84;;;5.25;64.45
30073;BME280;16897;52.422;13.678;2022-12-07T19:45:39;100559.06;;;5.04;64.17
30073;BME280;16897;52.422;13.678;2022-12-07T19:49:41;100589.59;;;5.19;64.25
30073;BME280;16897;52.422;13.678;2022-12-07T19:53:42;100595.59;;;5.20;64.31
30073;BME280;16897;52.422;13.678;2022-12-07T19:57:44;100569.53;;;5.01;64.25
30073;BME280;16897;52.422;13.678;2022-12-07T20:01:46;100594.06;;;5.14;64.28
30073;BME280;16897;52.422;13.678;2022-12-07T20:05:48;100577.13;;;5.05;64.24
30073;BME280;16897;52.422;13.678;2022-12-07T20:09:50;100561.06;;;4.96;64.47
30073;BME280;16897;52.422;13.678;2022-12-07T20:13:52;100575.53;;;5.01;64.24
30073;BME280;16897;52.422;13.678;2022-12-07T20:17:53;100585.75;;;5.06;64.47
30073;BME280;16897;52.422;13.678;2022-12-07T20:21:55;100583.53;;;4.95;64.40
30073;BME280;16897;52.422;13.678;2022-12-07T20:26:03;100576.72;;;4.93;64.38
30073;BME280;16897;52.422;13.678;2022-12-07T20:30:06;100575.03;;;4.92;64.35
30073;BME280;16897;52.422;13.678;2022-12-07T20:34:10;100592.97;;;4.96;64.45
30073;BME280;16897;52.422;13.678;2022-12-07T20:38:13;100587.75;;;4.98;64.26
30073;BME280;16897;52.422;13.678;2022-12-07T20:42:16;100592.09;;;4.97;64.45
30073;BME280;16897;52.422;13.678;2022-12-07T20:46:36;100586.38;;;4.87;64.41
30073;BME280;16897;52.422;13.678;2022-12-07T20:50:38;100591.38;;;4.92;64.47
30073;BME280;16897;52.422;13.678;2022-12-07T20:54:40;100595.44;;;4.99;64.50
30073;BME280;16897;52.422;13.678;2022-12-07T20:58:42;100591.28;;;4.95;64.47
30073;BME280;16897;52.422;13.678;2022-12-07T21:02:43;100599.66;;;5.02;64.46
30073;BME280;16897;52.422;13.678;2022-12-07T21:06:46;100586.25;;;4.91;64.33
30073;BME280;16897;52.422;13.678;2022-12-07T21:10:47;100599.03;;;4.95;64.28
30073;BME280;16897;52.422;13.678;2022-12-07T21:14:49;100531.63;;;4.48;64.18
30073;BME280;16897;52.422;13.678;2022-12-07T21:18:54;100612.03;;;4.94;64.36
30073;BME280;16897;52.422;13.678;2022-12-07T21:22:56;100596.84;;;4.83;64.18
30073;BME280;16897;52.422;13.678;2022-12-07T21:26:58;100596.13;;;4.79;64.21
30073;BME280;16897;52.422;13.678;2022-12-07T21:30:59;100614.09;;;4.84;64.13
30073;BME280;16897;52.422;13.678;2022-12-07T21:35:02;100621.16;;;4.79;64.25
30073;BME280;16897;52.422;13.678;2022-12-07T21:39:04;100603.34;;;4.70;64.21
30073;BME280;16897;52.422;13.678;2022-12-07T21:43:06;100618.72;;;4.74;64.36
30073;BME280;16897;52.422;13.678;2022-12-07T21:47:08;100593.25;;;4.62;64.41
30073;BME280;16897;52.422;13.678;2022-12-07T21:51:13;100579.88;;;4.49;64.20
30073;BME280;16897;52.422;13.678;2022-12-07T21:55:14;100611.19;;;4.66;64.37
30073;BME280;16897;52.422;13.678;2022-12-07T21:59:17;100566.50;;;4.36;64.14
30073;BME280;16897;52.422;13.678;2022-12-07T22:03:18;100609.66;;;4.61;64.32
30073;BME280;16897;52.422;13.678;2022-12-07T22:07:20;100607.91;;;4.61;64.25
30073;BME280;16897;52.422;13.678;2022-12-07T22:11:21;100602.09;;;4.55;64.20
30073;BME280;16897;52.422;13.678;2022-12-07T22:15:25;100600.50;;;4.51;64.11
30073;BME280;16897;52.422;13.678;2022-12-07T22:19:27;100604.72;;;4.53;64.19
30073;BME280;16897;52.422;13.678;2022-12-07T22:23:31;100605.78;;;4.48;64.16
30073;BME280;16897;52.422;13.678;2022-12-07T22:27:33;100609.38;;;4.43;64.47
30073;BME280;16897;52.422;13.678;2022-12-07T22:31:34;100594.13;;;4.34;64.42
30073;BME280;16897;52.422;13.678;2022-12-07T22:35:38;100601.00;;;4.35;64.21
30073;BME280;16897;52.422;13.678;2022-12-07T22:39:40;100619.53;;;4.48;64.35
30073;BME280;16897;52.422;13.678;2022-12-07T22:43:41;100605.16;;;4.39;64.29